createdAt,value
2022-10-12T00:01:24.636Z,100.00
2022-10-12T00:03:53.392Z,100.00
2022-10-12T00:06:23.599Z,100.00
2022-10-12T00:08:53.994Z,100.00
2022-10-12T00:11:25.327Z,100.00
2022-10-12T00:13:53.982Z,100.00
2022-10-12T00:16:23.783Z,100.00
2022-10-12T00:18:53.265Z,100.00
2022-10-12T00:21:22.153Z,100.00
2022-10-12T00:23:51.126Z,100.00
2022-10-12T00:26:21.601Z,100.00
2022-10-12T00:28:56.117Z,100.00
2022-10-12T00:31:24.889Z,100.00
2022-10-12T00:33:54.296Z,100.00
2022-10-12T00:36:24.942Z,100.00
2022-10-12T00:38:55.656Z,100.00
2022-10-12T00:41:27.169Z,100.00
2022-10-12T00:43:58.467Z,100.00
2022-10-12T00:46:31.250Z,100.00
2022-10-12T00:49:04.590Z,100.00
2022-10-12T00:51:33.351Z,100.00
2022-10-12T00:54:04.888Z,100.00
2022-10-12T00:56:35.084Z,100.00
2022-10-12T00:59:09.614Z,100.00
2022-10-12T01:01:38.083Z,100.00
2022-10-12T01:04:07.293Z,100.00
2022-10-12T01:06:36.047Z,100.00
2022-10-12T01:09:05.228Z,100.00
2022-10-12T01:11:33.805Z,100.00
2022-10-12T01:14:02.652Z,100.00
2022-10-12T01:16:37.920Z,100.00
2022-10-12T01:19:16.957Z,100.00
2022-10-12T01:21:47.626Z,100.00
2022-10-12T01:24:47.385Z,100.00
2022-10-12T01:27:37.608Z,100.00
2022-10-12T01:30:17.601Z,100.00
2022-10-12T01:32:56.031Z,100.00
2022-10-12T01:35:27.948Z,100.00
2022-10-12T01:38:04.443Z,100.00
2022-10-12T01:40:38.833Z,100.00
2022-10-12T01:43:08.654Z,100.00
2022-10-12T01:45:38.674Z,100.00
2022-10-12T01:48:07.665Z,100.00
2022-10-12T01:50:44.214Z,100.00
2022-10-12T01:53:18.286Z,100.00
2022-10-12T01:55:51.535Z,100.00
2022-10-12T01:58:30.304Z,100.00
2022-10-12T02:01:07.734Z,100.00
2022-10-12T02:03:43.089Z,100.00
2022-10-12T02:06:14.138Z,100.00
2022-10-12T02:08:47.919Z,100.00
2022-10-12T02:11:18.692Z,100.00
2022-10-12T02:13:49.572Z,100.00
2022-10-12T02:16:22.064Z,100.00
2022-10-12T02:18:52.721Z,100.00
2022-10-12T02:21:23.520Z,100.00
2022-10-12T02:23:54.186Z,100.00
2022-10-12T02:26:23.436Z,100.00
2022-10-12T02:28:52.022Z,100.00
2022-10-12T02:31:28.548Z,100.00
2022-10-12T02:34:02.270Z,100.00
2022-10-12T02:36:37.309Z,100.00
2022-10-12T02:39:10.057Z,100.00
2022-10-12T02:41:42.255Z,100.00
2022-10-12T02:44:13.969Z,100.00
2022-10-12T02:46:44.249Z,100.00
2022-10-12T02:49:13.433Z,100.00
2022-10-12T02:51:42.367Z,100.00
2022-10-12T02:54:11.023Z,100.00
2022-10-12T02:56:44.993Z,100.00
2022-10-12T02:59:14.341Z,100.00
2022-10-12T03:01:44.366Z,100.00
2022-10-12T03:04:12.875Z,100.00
2022-10-12T03:06:42.617Z,100.00
2022-10-12T03:09:11.191Z,100.00
2022-10-12T03:11:43.839Z,100.00
2022-10-12T03:14:12.956Z,100.00
2022-10-12T03:16:41.237Z,100.00
2022-10-12T03:19:11.354Z,100.00
2022-10-12T03:21:39.952Z,100.00
2022-10-12T03:24:08.945Z,100.00
2022-10-12T03:26:37.730Z,100.00
2022-10-12T03:29:06.516Z,100.00
2022-10-12T03:31:34.807Z,100.00
2022-10-12T03:34:03.423Z,100.00
2022-10-12T03:36:34.611Z,100.00
2022-10-12T03:39:03.286Z,100.00
2022-10-12T03:41:31.932Z,100.00
2022-10-12T03:44:00.575Z,100.00
2022-10-12T03:46:28.864Z,100.00
2022-10-12T03:48:57.484Z,100.00
2022-10-12T03:51:26.361Z,100.00
2022-10-12T03:53:56.425Z,100.00
2022-10-12T03:56:24.982Z,100.00
2022-10-12T03:58:53.228Z,100.00
2022-10-12T04:01:22.005Z,100.00
2022-10-12T04:03:50.790Z,100.00
2022-10-12T04:06:19.417Z,100.00
2022-10-12T04:08:51.028Z,100.00
2022-10-12T04:11:21.559Z,100.00
2022-10-12T04:13:49.967Z,100.00
2022-10-12T04:16:18.637Z,100.00
2022-10-12T04:18:47.622Z,100.00
2022-10-12T04:21:17.594Z,100.00
2022-10-12T04:23:46.342Z,100.00
2022-10-12T04:26:15.066Z,100.00
2022-10-12T04:28:44.831Z,100.00
2022-10-12T04:31:13.506Z,100.00
2022-10-12T04:33:42.163Z,100.00
2022-10-12T04:36:11.039Z,100.00
2022-10-12T04:38:39.704Z,100.00
2022-10-12T04:41:08.305Z,100.00
2022-10-12T04:43:36.583Z,100.00
2022-10-12T04:46:06.768Z,100.00
2022-10-12T04:48:35.477Z,100.00
2022-10-12T04:51:04.196Z,100.00
2022-10-12T04:53:33.155Z,100.00
2022-10-12T04:56:03.702Z,100.00
2022-10-12T04:58:31.881Z,100.00
2022-10-12T05:01:00.648Z,100.00
2022-10-12T05:03:30.635Z,100.00
2022-10-12T05:05:59.301Z,100.00
2022-10-12T05:08:27.938Z,100.00
2022-10-12T05:10:58.491Z,100.00
2022-10-12T05:13:27.417Z,100.00
2022-10-12T05:15:56.291Z,100.00
2022-10-12T05:18:25.241Z,100.00
2022-10-12T05:20:57.140Z,100.00
2022-10-12T05:23:26.017Z,100.00
2022-10-12T05:25:55.845Z,100.00
2022-10-12T05:28:26.054Z,100.00
2022-10-12T05:30:54.999Z,100.00
2022-10-12T05:33:23.657Z,100.00
2022-10-12T05:35:56.343Z,100.00
2022-10-12T05:38:26.814Z,100.00
2022-10-12T05:41:00.066Z,100.00
2022-10-12T05:43:29.879Z,100.00
2022-10-12T05:45:58.802Z,100.00
2022-10-12T05:48:27.697Z,100.00
2022-10-12T05:50:56.485Z,100.00
2022-10-12T05:53:26.609Z,100.00
2022-10-12T05:55:55.872Z,100.00
2022-10-12T05:58:25.201Z,100.00
2022-10-12T06:00:54.210Z,100.00
2022-10-12T06:03:26.201Z,100.00
2022-10-12T06:05:55.168Z,100.00
2022-10-12T06:08:23.851Z,100.00
2022-10-12T06:10:54.083Z,100.00
2022-10-12T06:13:22.837Z,100.00
2022-10-12T06:15:51.671Z,100.00
2022-10-12T06:18:20.466Z,100.00
2022-10-12T06:20:49.821Z,100.00
2022-10-12T06:23:18.863Z,100.00
2022-10-12T06:25:48.263Z,100.00
2022-10-12T06:28:19.485Z,100.00
2022-10-12T06:30:48.619Z,100.00
2022-10-12T06:33:17.210Z,100.00
2022-10-12T06:35:45.891Z,100.00
2022-10-12T06:38:14.481Z,100.00
2022-10-12T06:40:43.059Z,100.00
2022-10-12T06:43:11.692Z,100.00
2022-10-12T06:45:41.710Z,100.00
2022-10-12T06:48:12.845Z,100.00
2022-10-12T06:50:43.625Z,100.00
2022-10-12T06:53:12.311Z,100.00
2022-10-12T06:55:41.312Z,100.00
2022-10-12T06:58:10.016Z,100.00
2022-10-12T07:00:39.040Z,100.00
2022-10-12T07:03:11.155Z,100.00
2022-10-12T07:05:39.775Z,100.00
2022-10-12T07:08:08.447Z,100.00
2022-10-12T07:10:36.729Z,100.00
2022-10-12T07:13:05.368Z,100.00
2022-10-12T07:15:34.014Z,100.00
2022-10-12T07:18:02.615Z,100.00
2022-10-12T07:20:32.663Z,98.28
2022-10-12T07:23:01.277Z,100.00
2022-10-12T07:25:29.617Z,94.77
2022-10-12T07:27:58.287Z,94.66
2022-10-12T07:30:27.001Z,80.82
2022-10-12T07:32:55.886Z,84.65
2022-10-12T07:35:26.309Z,76.74
2022-10-12T07:37:56.138Z,84.21
2022-10-12T07:40:26.374Z,72.15
2022-10-12T07:43:16.505Z,74.97
2022-10-12T07:45:44.414Z,71.74
2022-10-12T07:48:13.348Z,66.73
2022-10-12T07:50:41.998Z,75.17
2022-10-12T07:53:12.021Z,62.97
2022-10-12T07:55:40.348Z,64.24
2022-10-12T07:58:09.041Z,67.20
2022-10-12T08:00:37.755Z,67.68
2022-10-12T08:03:06.549Z,62.04
2022-10-12T08:05:38.200Z,59.89
2022-10-12T08:08:08.886Z,50.50
2022-10-12T08:10:38.900Z,57.16
2022-10-12T08:13:07.478Z,52.24
2022-10-12T08:15:36.083Z,55.59
2022-10-12T08:18:04.905Z,61.33
2022-10-12T08:20:33.584Z,55.73
2022-10-12T08:23:02.173Z,57.38
2022-10-12T08:25:30.599Z,51.46
2022-10-12T08:28:01.250Z,52.62
2022-10-12T08:30:29.898Z,49.18
2022-10-12T08:32:58.585Z,52.74
2022-10-12T08:35:27.387Z,45.95
2022-10-12T08:37:55.939Z,48.03
2022-10-12T08:40:32.048Z,48.63
2022-10-12T08:43:07.725Z,50.09
2022-10-12T08:45:39.849Z,51.89
2022-10-12T08:48:12.910Z,48.22
2022-10-12T08:50:45.517Z,49.97
2022-10-12T08:53:17.495Z,52.60
2022-10-12T08:55:46.823Z,53.07
2022-10-12T08:58:20.784Z,54.33
2022-10-12T09:00:51.993Z,53.61
2022-10-12T09:03:33.747Z,54.67
2022-10-12T09:06:09.852Z,44.83
2022-10-12T09:08:48.878Z,37.73
2022-10-12T09:11:38.866Z,29.53
2022-10-12T09:14:09.100Z,28.82
2022-10-12T09:16:41.435Z,27.26
2022-10-12T09:19:14.811Z,29.70
2022-10-12T09:21:43.872Z,30.54
2022-10-12T09:24:16.463Z,27.80
2022-10-12T09:26:46.505Z,26.18
2022-10-12T09:29:24.281Z,28.55
2022-10-12T09:32:12.055Z,31.59
2022-10-12T09:34:41.294Z,30.70
2022-10-12T09:37:14.181Z,30.99
2022-10-12T09:39:43.128Z,33.43
2022-10-12T09:42:12.534Z,29.56
2022-10-12T09:44:46.350Z,30.08
2022-10-12T09:47:27.158Z,26.78
2022-10-12T09:49:58.858Z,28.07
2022-10-12T09:52:30.842Z,27.53
2022-10-12T09:55:03.562Z,28.27
2022-10-12T09:57:35.624Z,26.54
2022-10-12T10:00:08.863Z,30.46
2022-10-12T10:02:50.303Z,31.32
2022-10-12T10:05:26.849Z,31.29
2022-10-12T10:08:16.021Z,30.85
2022-10-12T10:10:49.478Z,29.92
2022-10-12T10:13:18.400Z,27.88
2022-10-12T10:15:50.490Z,28.38
2022-10-12T10:18:24.003Z,26.55
2022-10-12T10:20:55.183Z,28.03
2022-10-12T10:23:27.107Z,27.44
2022-10-12T10:25:57.744Z,29.45
2022-10-12T10:28:29.876Z,28.08
2022-10-12T10:31:02.858Z,29.92
2022-10-12T10:33:33.038Z,28.59
2022-10-12T10:36:04.814Z,26.88
2022-10-12T10:38:46.209Z,24.35
2022-10-12T10:41:18.187Z,25.35
2022-10-12T10:43:47.574Z,28.03
2022-10-12T10:46:17.491Z,33.46
2022-10-12T10:48:52.953Z,33.35
2022-10-12T10:51:21.689Z,31.48
2022-10-12T10:53:51.404Z,26.86
2022-10-12T10:56:22.180Z,24.29
2022-10-12T10:58:52.892Z,23.14
2022-10-12T11:01:26.645Z,24.74
2022-10-12T11:03:59.517Z,36.79
2022-10-12T11:06:34.290Z,45.61
2022-10-12T11:09:06.308Z,49.17
2022-10-12T11:11:37.841Z,42.46
2022-10-12T11:14:13.916Z,37.89
2022-10-12T11:16:47.029Z,46.29
2022-10-12T11:19:25.802Z,60.77
2022-10-12T11:21:56.024Z,49.66
2022-10-12T11:24:28.962Z,36.27
2022-10-12T11:26:59.390Z,31.67
2022-10-12T11:29:28.903Z,29.26
2022-10-12T11:32:04.383Z,28.52
2022-10-12T11:34:44.054Z,29.72
2022-10-12T11:37:20.313Z,26.19
2022-10-12T11:39:51.731Z,25.29
2022-10-12T11:42:30.727Z,25.09
2022-10-12T11:45:00.943Z,26.52
2022-10-12T11:47:37.831Z,26.25
2022-10-12T11:50:08.996Z,24.01
2022-10-12T11:52:40.557Z,22.40
2022-10-12T11:55:25.521Z,20.32
2022-10-12T11:57:55.600Z,17.94
2022-10-12T12:00:26.792Z,18.76
2022-10-12T12:03:00.832Z,26.99
2022-10-12T12:05:33.891Z,38.03
2022-10-12T12:08:03.220Z,49.50
2022-10-12T12:11:05.880Z,57.08
2022-10-12T12:13:34.509Z,39.44
2022-10-12T12:16:34.094Z,30.24
2022-10-12T12:19:18.754Z,42.56
2022-10-12T12:22:14.918Z,45.53
2022-10-12T12:24:53.372Z,47.85
2022-10-12T12:27:23.915Z,51.77
2022-10-12T12:29:52.943Z,41.59
2022-10-12T12:32:22.409Z,36.09
2022-10-12T12:35:00.266Z,32.09
2022-10-12T12:37:33.472Z,34.33
2022-10-12T12:40:02.185Z,50.76
2022-10-12T12:42:32.349Z,63.82
2022-10-12T12:45:06.356Z,72.33
2022-10-12T12:47:45.514Z,63.93
2022-10-12T12:50:36.731Z,48.50
2022-10-12T12:53:08.246Z,45.22
2022-10-12T12:55:47.427Z,46.42
2022-10-12T12:58:43.183Z,42.68
2022-10-12T13:01:23.754Z,46.82
2022-10-12T13:04:12.108Z,56.32
2022-10-12T13:07:01.762Z,70.87
2022-10-12T13:09:43.513Z,82.35
2022-10-12T13:12:34.379Z,89.81
2022-10-12T13:15:30.046Z,93.20
2022-10-12T13:18:45.668Z,99.02
2022-10-12T13:21:17.654Z,98.46
2022-10-12T13:23:49.466Z,100.00
2022-10-12T13:26:21.242Z,100.00
2022-10-12T13:28:51.264Z,100.00
2022-10-12T13:31:22.959Z,100.00
2022-10-12T13:33:59.730Z,100.00
2022-10-12T13:36:30.522Z,100.00
2022-10-12T13:39:09.154Z,100.00
2022-10-12T13:41:37.841Z,100.00
2022-10-12T13:44:07.430Z,96.11
2022-10-12T13:46:38.991Z,85.31
2022-10-12T13:49:15.989Z,84.36
2022-10-12T13:51:45.813Z,87.96
2022-10-12T13:54:19.183Z,89.24
2022-10-12T13:56:48.528Z,94.52
2022-10-12T13:59:20.201Z,94.81
2022-10-12T14:01:53.335Z,98.54
2022-10-12T14:04:22.210Z,100.00
2022-10-12T14:06:57.365Z,100.00
2022-10-12T14:09:28.813Z,100.00
2022-10-12T14:11:57.558Z,100.00
2022-10-12T14:14:32.086Z,100.00
2022-10-12T14:17:00.690Z,100.00
2022-10-12T14:19:37.318Z,100.00
2022-10-12T14:22:06.130Z,100.00
2022-10-12T14:24:36.886Z,100.00
2022-10-12T14:27:07.102Z,100.00
2022-10-12T14:29:38.355Z,100.00
2022-10-12T14:32:08.616Z,100.00
2022-10-12T14:34:40.991Z,100.00
2022-10-12T14:37:31.869Z,100.00
2022-10-12T14:40:24.872Z,100.00
2022-10-12T14:42:59.330Z,100.00
2022-10-12T14:45:28.382Z,100.00
2022-10-12T14:47:57.335Z,100.00
2022-10-12T14:50:26.034Z,100.00
2022-10-12T14:52:56.359Z,100.00
2022-10-12T14:55:28.021Z,100.00
2022-10-12T14:57:56.688Z,100.00
2022-10-12T15:00:26.897Z,100.00
2022-10-12T15:02:55.913Z,100.00
2022-10-12T15:05:25.657Z,100.00
2022-10-12T15:07:54.167Z,100.00
2022-10-12T15:10:24.079Z,100.00
2022-10-12T15:12:54.803Z,100.00
2022-10-12T15:15:33.371Z,100.00
2022-10-12T15:18:02.326Z,100.00
2022-10-12T15:20:31.662Z,100.00
2022-10-12T15:23:01.008Z,100.00
2022-10-12T15:25:38.047Z,100.00
2022-10-12T15:28:08.256Z,100.00
2022-10-12T15:30:52.075Z,100.00
2022-10-12T15:33:25.822Z,100.00
2022-10-12T15:35:54.428Z,100.00
2022-10-12T15:38:23.143Z,100.00
2022-10-12T15:40:52.904Z,100.00
2022-10-12T15:43:23.015Z,100.00
2022-10-12T15:45:52.002Z,100.00
2022-10-12T15:48:20.653Z,100.00
2022-10-12T15:50:50.366Z,100.00
2022-10-12T15:53:22.297Z,100.00
2022-10-12T15:55:50.730Z,100.00
2022-10-12T15:58:19.315Z,100.00
2022-10-12T16:00:49.410Z,100.00
2022-10-12T16:03:25.922Z,100.00
2022-10-12T16:05:55.235Z,100.00
2022-10-12T16:08:23.947Z,100.00
2022-10-12T16:10:52.571Z,100.00
2022-10-12T16:13:21.507Z,100.00
2022-10-12T16:15:51.501Z,100.00
2022-10-12T16:18:20.270Z,100.00
2022-10-12T16:20:53.610Z,100.00
2022-10-12T16:23:25.112Z,100.00
2022-10-12T16:25:53.539Z,100.00
2022-10-12T16:28:22.909Z,100.00
2022-10-12T16:30:53.775Z,100.00
2022-10-12T16:33:22.671Z,100.00
2022-10-12T16:35:51.360Z,100.00
2022-10-12T16:38:20.945Z,100.00
2022-10-12T16:40:50.080Z,100.00
2022-10-12T16:43:19.600Z,100.00
2022-10-12T16:45:57.417Z,100.00
2022-10-12T16:48:26.098Z,100.00
2022-10-12T16:50:54.738Z,100.00
2022-10-12T16:53:23.674Z,100.00
2022-10-12T16:55:52.563Z,100.00
2022-10-12T16:58:21.272Z,100.00
2022-10-12T17:00:50.173Z,100.00
2022-10-12T17:03:20.284Z,100.00
2022-10-12T17:05:49.016Z,100.00
2022-10-12T17:08:17.940Z,100.00
2022-10-12T17:10:46.359Z,100.00
2022-10-12T17:13:15.153Z,100.00
2022-10-12T17:15:43.907Z,100.00
2022-10-12T17:18:12.609Z,100.00
2022-10-12T17:20:42.622Z,100.00
2022-10-12T17:23:11.389Z,100.00
2022-10-12T17:25:39.656Z,100.00
2022-10-12T17:28:08.324Z,100.00
2022-10-12T17:30:38.619Z,100.00
2022-10-12T17:33:07.364Z,100.00
2022-10-12T17:35:40.500Z,100.00
2022-10-12T17:38:10.667Z,100.00
2022-10-12T17:40:40.427Z,100.00
2022-10-12T17:43:09.124Z,100.00
2022-10-12T17:45:40.658Z,100.00
2022-10-12T17:48:09.402Z,100.00
2022-10-12T17:50:39.626Z,100.00
2022-10-12T17:53:11.581Z,100.00
2022-10-12T17:55:48.948Z,100.00
2022-10-12T17:58:17.969Z,100.00
2022-10-12T18:00:46.805Z,100.00
2022-10-12T18:03:15.519Z,100.00
2022-10-12T18:05:46.483Z,100.00
2022-10-12T18:08:16.641Z,100.00
2022-10-12T18:10:45.153Z,100.00
2022-10-12T18:13:13.867Z,100.00
2022-10-12T18:15:44.516Z,100.00
2022-10-12T18:18:15.305Z,100.00
2022-10-12T18:20:44.286Z,100.00
2022-10-12T18:23:13.185Z,100.00
2022-10-12T18:25:43.967Z,100.00
2022-10-12T18:28:13.555Z,100.00
2022-10-12T18:30:48.042Z,100.00
2022-10-12T18:33:17.482Z,100.00
2022-10-12T18:35:46.141Z,100.00
2022-10-12T18:38:14.848Z,100.00
2022-10-12T18:40:44.757Z,100.00
2022-10-12T18:43:13.414Z,100.00
2022-10-12T18:45:43.370Z,100.00
2022-10-12T18:48:12.120Z,100.00
2022-10-12T18:50:41.482Z,100.00
2022-10-12T18:53:10.126Z,100.00
2022-10-12T18:55:39.120Z,100.00
2022-10-12T18:58:09.194Z,100.00
2022-10-12T19:00:38.363Z,100.00
2022-10-12T19:03:07.134Z,100.00
2022-10-12T19:05:35.824Z,100.00
2022-10-12T19:08:04.443Z,100.00
2022-10-12T19:10:32.747Z,100.00
2022-10-12T19:13:01.385Z,100.00
2022-10-12T19:15:31.401Z,100.00
2022-10-12T19:18:00.116Z,100.00
2022-10-12T19:20:28.772Z,100.00
2022-10-12T19:22:57.394Z,100.00
2022-10-12T19:25:25.774Z,100.00
2022-10-12T19:27:54.373Z,100.00
2022-10-12T19:30:23.030Z,100.00
2022-10-12T19:32:53.237Z,100.00
2022-10-12T19:35:23.812Z,100.00
2022-10-12T19:37:54.015Z,100.00
2022-10-12T19:40:22.465Z,100.00
2022-10-12T19:42:51.057Z,100.00
2022-10-12T19:45:19.626Z,100.00
2022-10-12T19:47:48.313Z,100.00
2022-10-12T19:50:18.596Z,100.00
2022-10-12T19:52:46.976Z,100.00
2022-10-12T19:55:17.464Z,100.00
2022-10-12T19:57:48.725Z,100.00
2022-10-12T20:00:17.876Z,100.00
2022-10-12T20:02:47.073Z,100.00
2022-10-12T20:05:15.734Z,100.00
2022-10-12T20:07:45.573Z,100.00
2022-10-12T20:10:14.207Z,100.00
2022-10-12T20:12:42.785Z,100.00
2022-10-12T20:15:12.323Z,100.00
2022-10-12T20:17:40.963Z,100.00
2022-10-12T20:20:10.580Z,100.00
2022-10-12T20:22:38.797Z,100.00
2022-10-12T20:25:09.895Z,100.00
2022-10-12T20:27:38.770Z,100.00
2022-10-12T20:30:08.488Z,100.00
2022-10-12T20:32:37.169Z,100.00
2022-10-12T20:35:06.775Z,100.00
2022-10-12T20:37:35.422Z,100.00
2022-10-12T20:40:04.262Z,100.00
2022-10-12T20:42:34.303Z,100.00
2022-10-12T20:45:02.934Z,100.00
2022-10-12T20:47:31.647Z,100.00
2022-10-12T20:50:00.330Z,100.00
2022-10-12T20:52:28.737Z,100.00
2022-10-12T20:54:57.444Z,100.00
2022-10-12T20:57:26.084Z,100.00
2022-10-12T20:59:56.082Z,100.00
2022-10-12T21:02:24.681Z,100.00
2022-10-12T21:04:52.912Z,100.00
2022-10-12T21:07:21.594Z,100.00
2022-10-12T21:09:51.993Z,100.00
2022-10-12T21:12:20.847Z,100.00
2022-10-12T21:14:49.769Z,100.00
2022-10-12T21:17:20.355Z,100.00
2022-10-12T21:19:49.534Z,100.00
2022-10-12T21:22:18.511Z,100.00
2022-10-12T21:24:47.500Z,100.00
2022-10-12T21:27:16.196Z,100.00
2022-10-12T21:29:44.808Z,100.00
2022-10-12T21:32:13.322Z,100.00
2022-10-12T21:34:42.978Z,100.00
2022-10-12T21:37:11.795Z,100.00
2022-10-12T21:39:40.534Z,100.00
2022-10-12T21:42:09.174Z,100.00
2022-10-12T21:44:37.959Z,100.00
2022-10-12T21:47:06.515Z,100.00
2022-10-12T21:49:34.846Z,100.00
2022-10-12T21:52:05.064Z,100.00
2022-10-12T21:54:33.762Z,100.00
2022-10-12T21:57:02.417Z,100.00
2022-10-12T21:59:34.195Z,100.00
2022-10-12T22:02:02.852Z,100.00
2022-10-12T22:04:33.264Z,100.00
2022-10-12T22:07:02.007Z,100.00
2022-10-12T22:09:32.063Z,100.00
2022-10-12T22:12:00.775Z,100.00
2022-10-12T22:14:29.461Z,100.00
2022-10-12T22:16:58.049Z,100.00
2022-10-12T22:19:26.517Z,100.00
2022-10-12T22:21:55.232Z,100.00
2022-10-12T22:24:29.228Z,100.00
2022-10-12T22:26:59.405Z,100.00
2022-10-12T22:29:28.033Z,100.00
2022-10-12T22:31:56.416Z,100.00
2022-10-12T22:34:25.070Z,100.00
2022-10-12T22:36:53.653Z,100.00
2022-10-12T22:39:26.060Z,100.00
2022-10-12T22:41:54.729Z,100.00
2022-10-12T22:44:27.613Z,100.00
2022-10-12T22:46:56.767Z,100.00
2022-10-12T22:49:25.400Z,100.00
2022-10-12T22:51:54.115Z,100.00
2022-10-12T22:54:22.803Z,100.00
2022-10-12T22:56:51.966Z,100.00
2022-10-12T22:59:20.681Z,100.00
2022-10-12T23:01:50.355Z,100.00
2022-10-12T23:04:19.083Z,100.00
2022-10-12T23:06:47.709Z,100.00
2022-10-12T23:09:16.298Z,100.00
2022-10-12T23:11:44.971Z,100.00
2022-10-12T23:14:13.581Z,100.00
2022-10-12T23:16:41.867Z,100.00
2022-10-12T23:19:11.946Z,100.00
2022-10-12T23:21:40.616Z,100.00
2022-10-12T23:24:10.694Z,100.00
2022-10-12T23:26:39.361Z,100.00
2022-10-12T23:29:07.977Z,100.00
2022-10-12T23:31:36.995Z,100.00
2022-10-12T23:34:06.823Z,100.00
2022-10-12T23:36:36.821Z,100.00
2022-10-12T23:39:06.600Z,100.00
2022-10-12T23:41:35.232Z,100.00
2022-10-12T23:44:03.950Z,100.00
2022-10-12T23:46:32.303Z,100.00
2022-10-12T23:49:00.961Z,100.00
2022-10-12T23:51:29.782Z,100.00
2022-10-12T23:53:59.889Z,100.00
2022-10-12T23:56:28.651Z,100.00
2022-10-12T23:58:57.275Z,100.00
